sensor_id;sensor_type;location;lat;lon;timestamp;pressure;altitude;pressure_sealevel;temperature;humidity
21706;BME280;11014;53.076;18.208;2023-02-16T00:01:31;102158.84;;;2.50;65.07
21706;BME280;11014;53.076;18.208;2023-02-16T00:04:01;102166.13;;;2.48;64.83
21706;BME280;11014;53.076;18.208;2023-02-16T00:06:36;102159.28;;;2.45;64.99
21706;BME280;11014;53.076;18.208;2023-02-16T00:09:05;102156.75;;;2.44;65.10
21706;BME280;11014;53.076;18.208;2023-02-16T00:11:34;102153.41;;;2.42;65.02
21706;BME280;11014;53.076;18.208;2023-02-16T00:14:22;102153.41;;;2.42;64.80
21706;BME280;11014;53.076;18.208;2023-02-16T00:16:57;102148.38;;;2.38;64.80
21706;BME280;11014;53.076;18.208;2023-02-16T00:19:28;102142.50;;;2.35;64.90
21706;BME280;11014;53.076;18.208;2023-02-16T00:21:58;102140.16;;;2.32;64.71
21706;BME280;11014;53.076;18.208;2023-02-16T00:24:28;102132.34;;;2.30;64.85
21706;BME280;11014;53.076;18.208;2023-02-16T00:26:57;102133.59;;;2.26;64.75
21706;BME280;11014;53.076;18.208;2023-02-16T00:29:29;102131.94;;;2.25;64.84
21706;BME280;11014;53.076;18.208;2023-02-16T00:31:59;102130.13;;;2.26;64.88
21706;BME280;11014;53.076;18.208;2023-02-16T00:34:36;102133.03;;;2.23;64.97
21706;BME280;11014;53.076;18.208;2023-02-16T00:37:08;102122.44;;;2.23;64.63
21706;BME280;11014;53.076;18.208;2023-02-16T00:39:38;102122.56;;;2.21;64.99
21706;BME280;11014;53.076;18.208;2023-02-16T00:42:18;102126.06;;;2.22;64.73
21706;BME280;11014;53.076;18.208;2023-02-16T00:44:48;102123.56;;;2.20;64.80
21706;BME280;11014;53.076;18.208;2023-02-16T00:47:27;102120.22;;;2.18;64.67
21706;BME280;11014;53.076;18.208;2023-02-16T00:49:57;102116.84;;;2.07;64.80
21706;BME280;11014;53.076;18.208;2023-02-16T00:52:33;102118.53;;;1.98;65.17
21706;BME280;11014;53.076;18.208;2023-02-16T00:55:11;102120.63;;;2.04;65.40
21706;BME280;11014;53.076;18.208;2023-02-16T00:57:47;102109.47;;;2.10;64.92
21706;BME280;11014;53.076;18.208;2023-02-16T01:00:29;102107.63;;;2.11;64.80
21706;BME280;11014;53.076;18.208;2023-02-16T01:03:05;102098.16;;;2.08;64.60
21706;BME280;11014;53.076;18.208;2023-02-16T01:05:36;102096.50;;;2.07;64.76
21706;BME280;11014;53.076;18.208;2023-02-16T01:08:13;102093.13;;;2.05;64.82
21706;BME280;11014;53.076;18.208;2023-02-16T01:11:02;102090.63;;;2.04;64.68
21706;BME280;11014;53.076;18.208;2023-02-16T01:13:40;102087.13;;;2.03;64.76
21706;BME280;11014;53.076;18.208;2023-02-16T01:16:15;102090.06;;;2.00;64.62
21706;BME280;11014;53.076;18.208;2023-02-16T01:18:45;102084.75;;;2.00;64.46
21706;BME280;11014;53.076;18.208;2023-02-16T01:21:14;102070.97;;;1.97;64.40
21706;BME280;11014;53.076;18.208;2023-02-16T01:23:43;102070.97;;;1.97;64.40
21706;BME280;11014;53.076;18.208;2023-02-16T01:26:17;102065.78;;;1.95;64.61
21706;BME280;11014;53.076;18.208;2023-02-16T01:28:47;102069.41;;;1.94;64.84
21706;BME280;11014;53.076;18.208;2023-02-16T01:31:18;102069.41;;;1.94;64.60
21706;BME280;11014;53.076;18.208;2023-02-16T01:33:47;102069.72;;;1.91;64.56
21706;BME280;11014;53.076;18.208;2023-02-16T01:36:23;102065.09;;;1.93;64.59
21706;BME280;11014;53.076;18.208;2023-02-16T01:38:53;102067.75;;;1.93;64.66
21706;BME280;11014;53.076;18.208;2023-02-16T01:41:58;102056.88;;;1.96;64.47
21706;BME280;11014;53.076;18.208;2023-02-16T01:44:37;102042.91;;;1.94;64.32
21706;BME280;11014;53.076;18.208;2023-02-16T01:47:46;102039.03;;;1.98;64.63
21706;BME280;11014;53.076;18.208;2023-02-16T01:50:22;102030.66;;;1.93;64.34
21706;BME280;11014;53.076;18.208;2023-02-16T01:52:57;102030.78;;;1.92;64.63
21706;BME280;11014;53.076;18.208;2023-02-16T01:58:46;102020.91;;;1.94;64.65
21706;BME280;11014;53.076;18.208;2023-02-16T02:03:32;102040.97;;;1.96;64.42
21706;BME280;11014;53.076;18.208;2023-02-16T02:06:32;102035.41;;;1.99;64.53
21706;BME280;11014;53.076;18.208;2023-02-16T02:09:03;102031.75;;;2.00;64.48
21706;BME280;11014;53.076;18.208;2023-02-16T02:11:44;102037.06;;;2.00;64.58
21706;BME280;11014;53.076;18.208;2023-02-16T02:14:21;102036.78;;;2.03;64.53
21706;BME280;11014;53.076;18.208;2023-02-16T02:16:56;102040.41;;;2.02;64.56
21706;BME280;11014;53.076;18.208;2023-02-16T02:19:26;102026.19;;;2.03;64.24
21706;BME280;11014;53.076;18.208;2023-02-16T02:27:43;102015.31;;;1.97;64.28
21706;BME280;11014;53.076;18.208;2023-02-16T02:33:05;102008.78;;;1.91;64.39
21706;BME280;11014;53.076;18.208;2023-02-16T02:35:55;102007.78;;;1.92;64.52
21706;BME280;11014;53.076;18.208;2023-02-16T02:38:52;102001.50;;;1.93;64.61
21706;BME280;11014;53.076;18.208;2023-02-16T02:41:36;101997.19;;;1.92;64.62
21706;BME280;11014;53.076;18.208;2023-02-16T02:44:26;101983.81;;;1.94;64.46
21706;BME280;11014;53.076;18.208;2023-02-16T02:46:56;101982.97;;;1.93;64.32
21706;BME280;11014;53.076;18.208;2023-02-16T02:49:25;101982.97;;;1.93;64.35
21706;BME280;11014;53.076;18.208;2023-02-16T02:51:53;101984.59;;;1.94;64.75
21706;BME280;11014;53.076;18.208;2023-02-16T02:54:24;101990.47;;;1.98;64.90
21706;BME280;11014;53.076;18.208;2023-02-16T02:57:15;101984.03;;;2.19;64.70
21706;BME280;11014;53.076;18.208;2023-02-16T03:00:12;101981.53;;;2.08;64.46
21706;BME280;11014;53.076;18.208;2023-02-16T03:05:36;101974.84;;;2.04;64.48
21706;BME280;11014;53.076;18.208;2023-02-16T03:08:09;101970.53;;;2.03;64.54
21706;BME280;11014;53.076;18.208;2023-02-16T03:10:47;101971.22;;;2.05;64.81
21706;BME280;11014;53.076;18.208;2023-02-16T03:13:39;101971.22;;;2.05;64.88
21706;BME280;11014;53.076;18.208;2023-02-16T03:16:18;101975.53;;;2.06;65.12
21706;BME280;11014;53.076;18.208;2023-02-16T03:18:49;101977.06;;;2.09;64.79
21706;BME280;11014;53.076;18.208;2023-02-16T03:21:37;101986.28;;;2.14;65.09
21706;BME280;11014;53.076;18.208;2023-02-16T03:24:28;101980.41;;;2.20;64.91
21706;BME280;11014;53.076;18.208;2023-02-16T03:27:21;101988.75;;;2.25;64.70
21706;BME280;11014;53.076;18.208;2023-02-16T03:30:10;101986.09;;;2.25;64.64
21706;BME280;11014;53.076;18.208;2023-02-16T03:32:40;101983.16;;;2.28;64.92
21706;BME280;11014;53.076;18.208;2023-02-16T03:35:08;101973.13;;;2.32;64.79
21706;BME280;11014;53.076;18.208;2023-02-16T03:37:40;101971.56;;;2.39;65.03
21706;BME280;11014;53.076;18.208;2023-02-16T03:40:12;101967.78;;;2.42;64.85
21706;BME280;11014;53.076;18.208;2023-02-16T03:43:07;101954.63;;;2.50;65.00
21706;BME280;11014;53.076;18.208;2023-02-16T03:45:38;101954.88;;;2.56;64.92
21706;BME280;11014;53.076;18.208;2023-02-16T03:48:08;101962.09;;;2.64;64.85
21706;BME280;11014;53.076;18.208;2023-02-16T03:50:37;101966.97;;;2.68;64.62
21706;BME280;11014;53.076;18.208;2023-02-16T03:53:05;101973.50;;;2.74;64.90
21706;BME280;11014;53.076;18.208;2023-02-16T03:55:40;101972.38;;;2.76;64.76
21706;BME280;11014;53.076;18.208;2023-02-16T03:58:10;101976.53;;;2.79;64.85
21706;BME280;11014;53.076;18.208;2023-02-16T04:00:39;101968.16;;;2.83;64.56
21706;BME280;11014;53.076;18.208;2023-02-16T04:03:08;101967.72;;;2.88;64.66
21706;BME280;11014;53.076;18.208;2023-02-16T04:05:37;101968.25;;;2.91;64.49
21706;BME280;11014;53.076;18.208;2023-02-16T04:08:06;101962.50;;;2.96;64.50
21706;BME280;11014;53.076;18.208;2023-02-16T04:10:36;101961.63;;;3.05;64.53
21706;BME280;11014;53.076;18.208;2023-02-16T04:13:05;101956.13;;;3.07;64.71
21706;BME280;11014;53.076;18.208;2023-02-16T04:15:34;101958.97;;;3.05;64.57
21706;BME280;11014;53.076;18.208;2023-02-16T04:18:03;101966.91;;;3.05;64.81
21706;BME280;11014;53.076;18.208;2023-02-16T04:20:35;101966.91;;;3.05;64.87
21706;BME280;11014;53.076;18.208;2023-02-16T04:23:04;101964.56;;;3.02;64.82
21706;BME280;11014;53.076;18.208;2023-02-16T04:25:34;101960.78;;;3.05;64.93
21706;BME280;11014;53.076;18.208;2023-02-16T04:28:03;101948.03;;;3.08;65.06
21706;BME280;11014;53.076;18.208;2023-02-16T04:30:31;101961.03;;;3.11;65.11
21706;BME280;11014;53.076;18.208;2023-02-16T04:33:00;101958.66;;;3.08;65.21
21706;BME280;11014;53.076;18.208;2023-02-16T04:35:29;101961.63;;;3.05;65.34
21706;BME280;11014;53.076;18.208;2023-02-16T04:37:57;101961.91;;;3.02;65.23
21706;BME280;11014;53.076;18.208;2023-02-16T04:40:25;101964.19;;;2.97;65.52
21706;BME280;11014;53.076;18.208;2023-02-16T04:42:54;101962.50;;;2.96;65.45
21706;BME280;11014;53.076;18.208;2023-02-16T04:45:22;101958.47;;;2.92;65.49
21706;BME280;11014;53.076;18.208;2023-02-16T04:47:51;101959.00;;;2.95;65.90
21706;BME280;11014;53.076;18.208;2023-02-16T04:50:19;101955.22;;;2.98;65.76
21706;BME280;11014;53.076;18.208;2023-02-16T04:52:48;101950.22;;;2.95;65.86
21706;BME280;11014;53.076;18.208;2023-02-16T04:55:16;101960.84;;;2.95;65.55
21706;BME280;11014;53.076;18.208;2023-02-16T04:57:45;101952.16;;;2.93;65.64
21706;BME280;11014;53.076;18.208;2023-02-16T05:00:14;101954.72;;;2.85;65.87
21706;BME280;11014;53.076;18.208;2023-02-16T05:02:42;101946.63;;;2.86;65.93
21706;BME280;11014;53.076;18.208;2023-02-16T05:05:11;101932.38;;;2.87;65.74
21706;BME280;11014;53.076;18.208;2023-02-16T05:07:39;101928.56;;;2.90;66.00
21706;BME280;11014;53.076;18.208;2023-02-16T05:10:08;101926.22;;;2.87;65.78
21706;BME280;11014;53.076;18.208;2023-02-16T05:12:37;101934.09;;;2.79;65.98
21706;BME280;11014;53.076;18.208;2023-02-16T05:15:24;101928.69;;;2.71;65.77
21706;BME280;11014;53.076;18.208;2023-02-16T05:17:53;101937.56;;;2.62;65.88
21706;BME280;11014;53.076;18.208;2023-02-16T05:20:21;101934.50;;;2.57;65.75
21706;BME280;11014;53.076;18.208;2023-02-16T05:23:10;101924.03;;;2.55;65.75
21706;BME280;11014;53.076;18.208;2023-02-16T05:25:42;101925.25;;;2.61;65.68
21706;BME280;11014;53.076;18.208;2023-02-16T05:28:13;101916.31;;;2.62;65.88
21706;BME280;11014;53.076;18.208;2023-02-16T05:30:42;101924.41;;;2.60;65.66
21706;BME280;11014;53.076;18.208;2023-02-16T05:33:10;101918.59;;;2.57;65.41
21706;BME280;11014;53.076;18.208;2023-02-16T05:35:39;101916.34;;;2.52;65.55
21706;BME280;11014;53.076;18.208;2023-02-16T05:38:07;101913.88;;;2.51;65.54
21706;BME280;11014;53.076;18.208;2023-02-16T05:40:36;101912.88;;;2.52;65.45
21706;BME280;11014;53.076;18.208;2023-02-16T05:43:04;101913.88;;;2.51;65.12
21706;BME280;11014;53.076;18.208;2023-02-16T05:45:33;101915.69;;;2.50;65.04
21706;BME280;11014;53.076;18.208;2023-02-16T05:48:02;101912.34;;;2.48;64.92
21706;BME280;11014;53.076;18.208;2023-02-16T05:50:30;101914.16;;;2.48;64.87
21706;BME280;11014;53.076;18.208;2023-02-16T05:52:59;101921.44;;;2.46;64.66
21706;BME280;11014;53.076;18.208;2023-02-16T05:55:27;101916.25;;;2.44;64.78
21706;BME280;11014;53.076;18.208;2023-02-16T05:58:03;101918.34;;;2.40;64.50
21706;BME280;11014;53.076;18.208;2023-02-16T06:00:32;101915.59;;;2.32;64.46
21706;BME280;11014;53.076;18.208;2023-02-16T06:03:01;101907.25;;;2.27;64.37
21706;BME280;11014;53.076;18.208;2023-02-16T06:05:29;101911.88;;;2.25;64.25
21706;BME280;11014;53.076;18.208;2023-02-16T06:07:58;101913.97;;;2.22;64.47
21706;BME280;11014;53.076;18.208;2023-02-16T06:10:26;101916.09;;;2.18;64.26
21706;BME280;11014;53.076;18.208;2023-02-16T06:12:55;101922.38;;;2.17;64.23
21706;BME280;11014;53.076;18.208;2023-02-16T06:15:24;101918.75;;;2.18;64.46
21706;BME280;11014;53.076;18.208;2023-02-16T06:17:52;101914.56;;;2.16;64.04
21706;BME280;11014;53.076;18.208;2023-02-16T06:20:20;101918.47;;;2.12;63.94
21706;BME280;11014;53.076;18.208;2023-02-16T06:22:49;101914.00;;;2.12;64.30
21706;BME280;11014;53.076;18.208;2023-02-16T06:25:17;101920.00;;;2.14;64.24
21706;BME280;11014;53.076;18.208;2023-02-16T06:27:47;101923.50;;;2.15;64.08
21706;BME280;11014;53.076;18.208;2023-02-16T06:30:17;101922.38;;;2.17;63.95
21706;BME280;11014;53.076;18.208;2023-02-16T06:32:46;101923.34;;;2.16;63.96
21706;BME280;11014;53.076;18.208;2023-02-16T06:35:15;101924.34;;;2.15;63.73
21706;BME280;11014;53.076;18.208;2023-02-16T06:37:44;101914.69;;;2.14;63.95
21706;BME280;11014;53.076;18.208;2023-02-16T06:40:13;101918.19;;;2.15;64.03
21706;BME280;11014;53.076;18.208;2023-02-16T06:42:42;101920.69;;;2.16;63.83
21706;BME280;11014;53.076;18.208;2023-02-16T06:45:11;101917.75;;;2.19;63.69
21706;BME280;11014;53.076;18.208;2023-02-16T06:47:40;101919.97;;;2.24;63.74
21706;BME280;11014;53.076;18.208;2023-02-16T06:50:09;101917.34;;;2.24;63.67
21706;BME280;11014;53.076;18.208;2023-02-16T06:52:37;101924.84;;;2.28;63.96
21706;BME280;11014;53.076;18.208;2023-02-16T06:55:06;101920.91;;;2.32;63.89
21706;BME280;11014;53.076;18.208;2023-02-16T06:57:35;101922.28;;;2.36;63.56
21706;BME280;11014;53.076;18.208;2023-02-16T07:00:04;101920.03;;;2.42;63.89
21706;BME280;11014;53.076;18.208;2023-02-16T07:02:34;101910.53;;;2.49;63.66
21706;BME280;11014;53.076;18.208;2023-02-16T07:05:03;101908.41;;;2.52;63.60
21706;BME280;11014;53.076;18.208;2023-02-16T07:07:31;101898.06;;;2.59;63.68
21706;BME280;11014;53.076;18.208;2023-02-16T07:09:59;101900.25;;;2.63;63.81
21706;BME280;11014;53.076;18.208;2023-02-16T07:12:30;101892.84;;;2.67;63.66
21706;BME280;11014;53.076;18.208;2023-02-16T07:14:58;101890.28;;;2.75;63.92
21706;BME280;11014;53.076;18.208;2023-02-16T07:17:27;101884.22;;;2.82;63.71
21706;BME280;11014;53.076;18.208;2023-02-16T07:19:56;101888.78;;;2.90;63.70
21706;BME280;11014;53.076;18.208;2023-02-16T07:22:27;101886.91;;;3.00;64.02
21706;BME280;11014;53.076;18.208;2023-02-16T07:24:57;101883.63;;;3.06;63.53
21706;BME280;11014;53.076;18.208;2023-02-16T07:27:27;101878.44;;;3.14;63.89
21706;BME280;11014;53.076;18.208;2023-02-16T07:29:56;101876.81;;;3.21;63.85
21706;BME280;11014;53.076;18.208;2023-02-16T07:32:25;101894.34;;;3.32;64.11
21706;BME280;11014;53.076;18.208;2023-02-16T07:34:54;101890.91;;;3.39;63.88
21706;BME280;11014;53.076;18.208;2023-02-16T07:37:22;101897.31;;;3.46;63.98
21706;BME280;11014;53.076;18.208;2023-02-16T07:39:51;101894.84;;;3.53;64.32
21706;BME280;11014;53.076;18.208;2023-02-16T07:42:20;101902.22;;;3.59;64.44
21706;BME280;11014;53.076;18.208;2023-02-16T07:44:51;101895.13;;;3.68;64.48
21706;BME280;11014;53.076;18.208;2023-02-16T07:47:20;101894.53;;;3.74;64.42
21706;BME280;11014;53.076;18.208;2023-02-16T07:49:48;101884.78;;;3.82;64.63
21706;BME280;11014;53.076;18.208;2023-02-16T07:52:17;101889.00;;;3.93;64.86
21706;BME280;11014;53.076;18.208;2023-02-16T07:54:45;101887.75;;;4.05;64.63
21706;BME280;11014;53.076;18.208;2023-02-16T07:57:14;101884.50;;;4.19;65.06
21706;BME280;11014;53.076;18.208;2023-02-16T07:59:42;101894.72;;;4.32;65.01
21706;BME280;11014;53.076;18.208;2023-02-16T08:02:15;101893.59;;;4.42;65.11
21706;BME280;11014;53.076;18.208;2023-02-16T08:04:45;101890.66;;;4.53;65.16
21706;BME280;11014;53.076;18.208;2023-02-16T08:07:15;101893.84;;;4.65;65.07
21706;BME280;11014;53.076;18.208;2023-02-16T08:09:44;101887.38;;;4.75;65.14
21706;BME280;11014;53.076;18.208;2023-02-16T08:12:14;101883.63;;;4.86;65.22
21706;BME280;11014;53.076;18.208;2023-02-16T08:14:43;101883.13;;;4.99;65.60
21706;BME280;11014;53.076;18.208;2023-02-16T08:17:14;101883.50;;;5.12;65.34
21706;BME280;11014;53.076;18.208;2023-02-16T08:19:42;101890.50;;;5.21;65.38
21706;BME280;11014;53.076;18.208;2023-02-16T08:22:11;101892.19;;;5.30;65.77
21706;BME280;11014;53.076;18.208;2023-02-16T08:24:39;101892.53;;;5.35;65.97
21706;BME280;11014;53.076;18.208;2023-02-16T08:27:09;101895.66;;;5.47;66.08
21706;BME280;11014;53.076;18.208;2023-02-16T08:29:39;101894.84;;;5.54;66.27
21706;BME280;11014;53.076;18.208;2023-02-16T08:32:12;101895.19;;;5.67;66.26
21706;BME280;11014;53.076;18.208;2023-02-16T08:34:41;101896.66;;;5.78;66.48
21706;BME280;11014;53.076;18.208;2023-02-16T08:37:12;101898.03;;;5.90;66.39
21706;BME280;11014;53.076;18.208;2023-02-16T08:39:40;101892.16;;;6.03;66.31
21706;BME280;11014;53.076;18.208;2023-02-16T08:42:11;101895.81;;;6.10;66.54
21706;BME280;11014;53.076;18.208;2023-02-16T08:44:40;101887.31;;;6.14;67.09
21706;BME280;11014;53.076;18.208;2023-02-16T08:47:09;101893.94;;;6.18;67.37
21706;BME280;11014;53.076;18.208;2023-02-16T08:49:38;101893.09;;;6.26;67.41
21706;BME280;11014;53.076;18.208;2023-02-16T08:52:07;101892.94;;;6.27;67.64
21706;BME280;11014;53.076;18.208;2023-02-16T08:54:38;101892.59;;;6.30;68.29
21706;BME280;11014;53.076;18.208;2023-02-16T08:57:07;101895.56;;;6.43;68.12
21706;BME280;11014;53.076;18.208;2023-02-16T08:59:36;101891.31;;;6.57;68.05
21706;BME280;11014;53.076;18.208;2023-02-16T09:02:04;101890.59;;;6.71;67.86
21706;BME280;11014;53.076;18.208;2023-02-16T09:04:33;101890.84;;;6.84;67.96
21706;BME280;11014;53.076;18.208;2023-02-16T09:07:04;101895.81;;;6.95;67.79
21706;BME280;11014;53.076;18.208;2023-02-16T09:09:32;101893.47;;;6.92;68.52
21706;BME280;11014;53.076;18.208;2023-02-16T09:12:01;101888.75;;;7.02;68.08
21706;BME280;11014;53.076;18.208;2023-02-16T09:14:30;101885.31;;;7.16;68.46
21706;BME280;11014;53.076;18.208;2023-02-16T09:16:58;101895.78;;;7.26;68.32
21706;BME280;11014;53.076;18.208;2023-02-16T09:19:27;101887.06;;;7.32;67.94
21706;BME280;11014;53.076;18.208;2023-02-16T09:21:55;101888.47;;;7.43;68.04
21706;BME280;11014;53.076;18.208;2023-02-16T09:24:24;101887.22;;;7.53;67.89
21706;BME280;11014;53.076;18.208;2023-02-16T09:26:54;101886.94;;;7.63;67.60
21706;BME280;11014;53.076;18.208;2023-02-16T09:29:22;101893.63;;;7.67;67.51
21706;BME280;11014;53.076;18.208;2023-02-16T09:31:53;101899.91;;;7.74;67.63
21706;BME280;11014;53.076;18.208;2023-02-16T09:34:24;101896.78;;;7.85;67.35
21706;BME280;11014;53.076;18.208;2023-02-16T09:36:55;101909.44;;;7.91;67.13
21706;BME280;11014;53.076;18.208;2023-02-16T09:39:23;101894.22;;;7.92;67.44
21706;BME280;11014;53.076;18.208;2023-02-16T09:44:34;101888.25;;;8.04;67.45
21706;BME280;11014;53.076;18.208;2023-02-16T09:47:26;101892.56;;;8.20;66.81
21706;BME280;11014;53.076;18.208;2023-02-16T09:50:04;101890.75;;;8.20;66.63
21706;BME280;11014;53.076;18.208;2023-02-16T09:52:36;101886.13;;;8.14;66.50
21706;BME280;11014;53.076;18.208;2023-02-16T09:55:13;101886.63;;;8.32;66.34
21706;BME280;11014;53.076;18.208;2023-02-16T10:03:37;101881.88;;;8.64;66.04
21706;BME280;11014;53.076;18.208;2023-02-16T10:06:23;101873.72;;;8.72;66.10
21706;BME280;11014;53.076;18.208;2023-02-16T10:08:58;101876.47;;;8.93;65.77
21706;BME280;11014;53.076;18.208;2023-02-16T10:11:32;101875.97;;;9.04;65.16
21706;BME280;11014;53.076;18.208;2023-02-16T10:19:53;101868.56;;;9.27;63.92
21706;BME280;11014;53.076;18.208;2023-02-16T10:22:33;101873.16;;;9.54;63.28
21706;BME280;11014;53.076;18.208;2023-02-16T10:25:12;101866.16;;;9.32;63.93
21706;BME280;11014;53.076;18.208;2023-02-16T10:27:48;101867.06;;;9.39;63.35
21706;BME280;11014;53.076;18.208;2023-02-16T10:30:20;101854.88;;;9.65;63.20
21706;BME280;11014;53.076;18.208;2023-02-16T10:32:53;101854.03;;;10.13;62.51
21706;BME280;11014;53.076;18.208;2023-02-16T10:35:31;101861.69;;;10.16;61.94
21706;BME280;11014;53.076;18.208;2023-02-16T10:38:12;101858.56;;;10.19;61.61
21706;BME280;11014;53.076;18.208;2023-02-16T10:41:20;101857.78;;;10.25;60.98
21706;BME280;11014;53.076;18.208;2023-02-16T10:44:10;101849.50;;;10.20;61.04
21706;BME280;11014;53.076;18.208;2023-02-16T10:46:44;101851.41;;;10.26;60.46
21706;BME280;11014;53.076;18.208;2023-02-16T10:49:14;101857.84;;;10.38;60.25
21706;BME280;11014;53.076;18.208;2023-02-16T10:51:48;101860.41;;;10.53;60.21
21706;BME280;11014;53.076;18.208;2023-02-16T10:54:27;101851.25;;;10.34;59.70
21706;BME280;11014;53.076;18.208;2023-02-16T10:57:04;101858.50;;;10.40;59.49
21706;BME280;11014;53.076;18.208;2023-02-16T10:59:41;101851.69;;;10.44;59.49
21706;BME280;11014;53.076;18.208;2023-02-16T11:02:19;101857.13;;;10.57;59.08
21706;BME280;11014;53.076;18.208;2023-02-16T11:04:53;101846.84;;;10.74;59.03
21706;BME280;11014;53.076;18.208;2023-02-16T11:07:27;101849.72;;;10.59;58.39
21706;BME280;11014;53.076;18.208;2023-02-16T11:10:00;101845.50;;;10.44;57.83
21706;BME280;11014;53.076;18.208;2023-02-16T11:12:53;101836.94;;;10.68;57.97
21706;BME280;11014;53.076;18.208;2023-02-16T11:15:25;101831.59;;;10.88;57.53
21706;BME280;11014;53.076;18.208;2023-02-16T11:23:31;101832.28;;;11.16;56.53
21706;BME280;11014;53.076;18.208;2023-02-16T11:26:25;101821.72;;;11.34;56.09
21706;BME280;11014;53.076;18.208;2023-02-16T11:29:26;101818.84;;;11.42;55.76
21706;BME280;11014;53.076;18.208;2023-02-16T11:31:55;101817.41;;;11.59;55.77
21706;BME280;11014;53.076;18.208;2023-02-16T11:34:40;101807.25;;;11.81;55.84
21706;BME280;11014;53.076;18.208;2023-02-16T11:37:32;101818.03;;;11.87;54.46
21706;BME280;11014;53.076;18.208;2023-02-16T11:40:16;101825.03;;;11.95;54.89
21706;BME280;11014;53.076;18.208;2023-02-16T11:42:54;101816.78;;;11.97;54.75
21706;BME280;11014;53.076;18.208;2023-02-16T11:45:27;101817.16;;;12.07;54.48
21706;BME280;11014;53.076;18.208;2023-02-16T11:48:07;101821.22;;;12.29;54.35
21706;BME280;11014;53.076;18.208;2023-02-16T11:50:56;101808.72;;;12.41;53.58
21706;BME280;11014;53.076;18.208;2023-02-16T11:53:29;101806.63;;;12.56;53.17
21706;BME280;11014;53.076;18.208;2023-02-16T11:56:11;101812.09;;;13.12;52.32
21706;BME280;11014;53.076;18.208;2023-02-16T11:58:40;101806.41;;;13.94;50.79
21706;BME280;11014;53.076;18.208;2023-02-16T12:04:21;101820.41;;;15.47;45.43
21706;BME280;11014;53.076;18.208;2023-02-16T12:09:46;101805.16;;;16.78;44.16
21706;BME280;11014;53.076;18.208;2023-02-16T12:12:32;101794.69;;;16.98;42.54
21706;BME280;11014;53.076;18.208;2023-02-16T12:17:59;101791.69;;;17.78;40.75
21706;BME280;11014;53.076;18.208;2023-02-16T12:20:40;101786.59;;;18.25;40.50
21706;BME280;11014;53.076;18.208;2023-02-16T12:29:11;101761.59;;;18.71;38.38
21706;BME280;11014;53.076;18.208;2023-02-16T12:32:22;101766.81;;;18.51;38.44
21706;BME280;11014;53.076;18.208;2023-02-16T12:38:12;101764.41;;;18.55;37.68
21706;BME280;11014;53.076;18.208;2023-02-16T12:43:29;101747.66;;;17.59;39.59
21706;BME280;11014;53.076;18.208;2023-02-16T12:46:23;101749.94;;;17.67;39.62
21706;BME280;11014;53.076;18.208;2023-02-16T12:49:35;101749.22;;;17.55;39.38
21706;BME280;11014;53.076;18.208;2023-02-16T12:52:17;101751.91;;;17.72;39.64
21706;BME280;11014;53.076;18.208;2023-02-16T12:57:48;101747.16;;;17.29;40.05
21706;BME280;11014;53.076;18.208;2023-02-16T13:00:27;101739.09;;;17.34;40.32
21706;BME280;11014;53.076;18.208;2023-02-16T13:03:10;101732.00;;;18.10;39.21
21706;BME280;11014;53.076;18.208;2023-02-16T13:05:48;101725.63;;;18.69;38.33
21706;BME280;11014;53.076;18.208;2023-02-16T13:08:32;101720.56;;;19.46;37.28
21706;BME280;11014;53.076;18.208;2023-02-16T13:11:15;101724.44;;;20.02;35.65
21706;BME280;11014;53.076;18.208;2023-02-16T13:13:50;101722.81;;;20.11;36.09
21706;BME280;11014;53.076;18.208;2023-02-16T13:16:25;101728.13;;;19.81;36.12
21706;BME280;11014;53.076;18.208;2023-02-16T13:19:04;101719.56;;;20.20;35.98
21706;BME280;11014;53.076;18.208;2023-02-16T13:30:13;101730.66;;;19.98;35.87
21706;BME280;11014;53.076;18.208;2023-02-16T13:35:51;101722.75;;;19.91;36.00
21706;BME280;11014;53.076;18.208;2023-02-16T13:44:27;101710.34;;;20.26;35.41
21706;BME280;11014;53.076;18.208;2023-02-16T13:47:03;101707.16;;;20.49;35.19
21706;BME280;11014;53.076;18.208;2023-02-16T13:49:37;101702.81;;;20.73;34.91
21706;BME280;11014;53.076;18.208;2023-02-16T13:52:29;101713.78;;;21.08;34.88
21706;BME280;11014;53.076;18.208;2023-02-16T13:55:00;101714.84;;;20.97;34.21
21706;BME280;11014;53.076;18.208;2023-02-16T14:03:11;101708.75;;;20.40;34.51
21706;BME280;11014;53.076;18.208;2023-02-16T14:05:42;101713.25;;;19.15;36.48
21706;BME280;11014;53.076;18.208;2023-02-16T14:08:15;101709.59;;;18.46;38.05
21706;BME280;11014;53.076;18.208;2023-02-16T14:13:30;101715.03;;;19.05;37.18
21706;BME280;11014;53.076;18.208;2023-02-16T14:19:03;101726.38;;;18.38;38.06
21706;BME280;11014;53.076;18.208;2023-02-16T14:21:38;101731.63;;;18.23;38.30
21706;BME280;11014;53.076;18.208;2023-02-16T14:24:27;101718.97;;;18.12;38.49
21706;BME280;11014;53.076;18.208;2023-02-16T14:27:05;101718.03;;;18.01;38.20
21706;BME280;11014;53.076;18.208;2023-02-16T14:29:59;101718.19;;;18.11;39.00
21706;BME280;11014;53.076;18.208;2023-02-16T14:32:31;101721.31;;;18.03;38.68
21706;BME280;11014;53.076;18.208;2023-02-16T14:35:29;101720.56;;;17.86;39.32
21706;BME280;11014;53.076;18.208;2023-02-16T14:38:06;101724.59;;;17.62;39.52
21706;BME280;11014;53.076;18.208;2023-02-16T14:41:12;101718.97;;;17.35;39.87
21706;BME280;11014;53.076;18.208;2023-02-16T14:43:48;101714.81;;;17.11;40.38
21706;BME280;11014;53.076;18.208;2023-02-16T14:47:03;101704.53;;;16.96;40.94
21706;BME280;11014;53.076;18.208;2023-02-16T14:49:50;101703.13;;;16.49;41.54
21706;BME280;11014;53.076;18.208;2023-02-16T14:59:03;101693.38;;;15.57;43.49
21706;BME280;11014;53.076;18.208;2023-02-16T15:01:41;101699.84;;;15.67;43.40